Overview Statistics Trail Chart Weather Telemetry Raw packets
 

This is the latest recevied weather packets stored in our database for station/object OK1FET-5. If no packets are shown the sender has not sent any weather packets the latest 10 day(s).

<< 3 4 5 6 7 8 9 >>
Time Temp. Humidity Pressure Rain* Wind** Luminosity Snow
1788536634 30° C 40% 1011.6 hPa - - - -
1788536038 29.44° C 42% 1012 hPa - - - -
1788535443 28.89° C 42% 1012 hPa - - - -
1788534847 29.44° C 41% 1012 hPa - - - -
1788534251 30.56° C 40% 1012 hPa - - - -
1788533655 30.56° C 40% 1012.1 hPa - - - -
1788533059 31.11° C 40% 1012.4 hPa - - - -
1788532464 31.11° C 39% 1012.4 hPa - - - -
1788531868 31.11° C 40% 1012.3 hPa - - - -
1788531272 30.56° C 41% 1012.8 hPa - - - -
1788530676 31.11° C 39% 1012.9 hPa - - - -
1788530080 31.11° C 39% 1013 hPa - - - -
1788529485 31.11° C 39% 1013.1 hPa - - - -
1788528889 30° C 42% 1013.5 hPa - - - -
1788528293 29.44° C 42% 1013.6 hPa - - - -
1788527697 30.56° C 41% 1013.9 hPa - - - -
1788527102 30° C 42% 1013.8 hPa - - - -
1788526506 30° C 43% 1014.2 hPa - - - -
1788525910 29.44° C 45% 1014.5 hPa - - - -
1788525314 28.89° C 46% 1014.7 hPa - - - -
1788524719 30° C 44% 1014.9 hPa - - - -
1788524123 29.44° C 46% 1014.9 hPa - - - -
1788523527 28.33° C 48% 1015.2 hPa - - - -
1788522931 27.78° C 49% 1015.3 hPa - - - -
1788522335 27.22° C 51% 1015.5 hPa - - - -

* Rain since midnight (hover to see other rain measurements)
** Current wind speed in m/s (hover to see current wind gust speed)